Time;durP1;ratioP1;P1;durP2;ratioP2;P2;SDS_P1;SDS_P2;PMS_P1;PMS_P2;Temp;Humidity;BMP_temperature;BMP_pressure;BME280_temperature;BME280_humidity;BME280_pressure;Samples;Min_cycle;Max_cycle;Signal;HPM_P1;HPM_P2
2021/11/28 00:03:49;;;;;;;37.20;15.98;;;;;;;2.80;100.00;98572.45;714424;1199;114717;-74
2021/11/28 00:18:51;;;;;;;57.15;19.10;;;;;;;2.70;100.00;98576.75;713811;1200;113514;-75
2021/11/28 00:33:54;;;;;;;59.45;21.35;;;;;;;2.53;100.00;98626.52;714176;1177;114824;-75
2021/11/28 00:48:57;;;;;;;72.18;24.85;;;;;;;2.11;100.00;98625.48;713854;1180;114307;-74
2021/11/28 01:04:01;;;;;;;70.13;23.03;;;;;;;2.02;100.00;98621.05;714057;1177;113940;-75
2021/11/28 01:19:05;;;;;;;85.43;26.43;;;;;;;2.07;100.00;98621.50;714076;1203;114019;-74
2021/11/28 01:34:08;;;;;;;84.27;26.67;;;;;;;2.10;100.00;98620.41;713857;1200;114361;-74
2021/11/28 01:49:11;;;;;;;64.83;22.58;;;;;;;2.25;100.00;98602.86;714102;1199;113997;-74
2021/11/28 02:04:16;;;;;;;68.97;24.20;;;;;;;2.30;100.00;98595.55;714355;1176;114291;-74
2021/11/28 02:19:18;;;;;;;83.83;27.27;;;;;;;2.52;100.00;98567.91;713969;1199;113984;-74
2021/11/28 02:34:21;;;;;;;90.18;29.05;;;;;;;2.55;100.00;98578.00;713974;1176;114103;-74
2021/11/28 02:49:24;;;;;;;81.83;26.53;;;;;;;2.69;100.00;98598.41;714015;1200;115556;-74
2021/11/28 03:04:27;;;;;;;179.48;59.78;;;;;;;2.91;100.00;98587.09;713969;1199;115227;-73
2021/11/28 03:19:29;;;;;;;142.03;41.70;;;;;;;2.98;100.00;98553.73;713985;1176;114180;-74
2021/11/28 03:34:32;;;;;;;121.90;36.30;;;;;;;2.94;100.00;98586.02;714067;1200;115038;-74
2021/11/28 03:49:34;;;;;;;120.13;34.63;;;;;;;2.97;100.00;98586.59;713993;1200;114158;-74
2021/11/28 04:04:37;;;;;;;89.83;33.50;;;;;;;3.02;100.00;98588.78;714060;1177;114165;-76
2021/11/28 04:19:39;;;;;;;98.75;30.53;;;;;;;3.06;100.00;98591.95;714179;1200;113947;-75
2021/11/28 04:34:41;;;;;;;98.33;32.13;;;;;;;2.96;100.00;98587.54;714075;1192;114371;-75
2021/11/28 04:49:45;;;;;;;97.30;32.90;;;;;;;2.97;100.00;98593.56;715095;1189;114792;-75
2021/11/28 05:04:48;;;;;;;97.70;33.48;;;;;;;3.04;100.00;98594.67;717194;1177;114404;-75
2021/11/28 05:19:50;;;;;;;106.47;33.53;;;;;;;3.00;100.00;98604.47;715248;1199;115526;-75
2021/11/28 05:34:53;;;;;;;88.57;31.70;;;;;;;3.04;100.00;98584.31;715730;1176;115498;-81
2021/11/28 05:49:55;;;;;;;104.20;33.75;;;;;;;3.09;100.00;98579.56;715489;1200;115342;-80
2021/11/28 06:04:57;;;;;;;104.23;33.70;;;;;;;2.97;100.00;98593.56;716094;1202;114550;-80
2021/11/28 06:20:00;;;;;;;100.35;29.15;;;;;;;2.90;100.00;98597.59;719087;1199;114095;-75
2021/11/28 06:35:03;;;;;;;104.93;33.70;;;;;;;2.81;100.00;98623.31;714937;1200;114761;-85
2021/11/28 06:50:07;;;;;;;101.13;33.20;;;;;;;2.63;100.00;98635.99;714353;1202;114868;-84
2021/11/28 07:05:09;;;;;;;95.40;30.30;;;;;;;2.70;100.00;98662.20;715164;1199;115381;-73
2021/11/28 07:20:16;;;;;;;;;;;;;;;2.86;100.00;98658.38;715160;1206;114677;-73
2021/11/28 07:35:18;;;;;;;160.98;58.15;;;;;;;3.03;100.00;98672.53;717219;1203;100721;-73
2021/11/28 07:58:44;;;;;;;102.20;35.90;;;;;;;2.91;100.00;98688.13;718136;1192;23118;-75
2021/11/28 08:13:50;;;;;;;88.80;29.25;;;;;;;2.86;100.00;98686.87;715414;1200;113459;-75
2021/11/28 08:28:53;;;;;;;128.25;49.43;;;;;;;2.94;100.00;98693.08;716454;1199;114070;-71
2021/11/28 08:43:56;;;;;;;176.35;61.23;;;;;;;2.89;100.00;98681.42;715368;1200;114277;-74
2021/11/28 08:58:58;;;;;;;112.10;42.85;;;;;;;2.92;100.00;98699.33;715086;1176;113698;-72
2021/11/28 09:14:01;;;;;;;95.40;37.03;;;;;;;2.88;100.00;98698.75;715456;1200;113550;-73
2021/11/28 09:29:05;;;;;;;118.08;40.73;;;;;;;2.88;100.00;98708.27;715226;1174;113293;-73
2021/11/28 09:44:11;;;;;;;75.43;30.78;;;;;;;2.81;100.00;98711.38;715620;1199;114907;-74
2021/11/28 09:59:13;;;;;;;67.50;26.80;;;;;;;2.88;100.00;98721.22;719609;1177;113169;-73
2021/11/28 10:14:16;;;;;;;69.78;28.68;;;;;;;2.94;100.00;98708.63;719934;1200;113526;-73
2021/11/28 10:29:20;;;;;;;104.80;42.05;;;;;;;3.21;100.00;98698.68;717017;1200;114618;-73
2021/11/28 10:44:26;;;;;;;95.13;32.55;;;;;;;3.15;100.00;98710.38;716783;1200;114151;-72
2021/11/28 10:59:28;;;;;;;154.47;46.07;;;;;;;3.04;100.00;98702.69;715517;1199;114515;-71
2021/11/28 11:14:41;;;;;;;102.80;47.45;;;;;;;3.07;100.00;98708.41;715975;1199;114617;-72
2021/11/28 11:29:50;;;;;;;86.88;38.95;;;;;;;3.20;100.00;98697.88;716799;1174;113469;-72
2021/11/28 11:44:52;;;;;;;77.20;30.05;;;;;;;3.19;100.00;98700.59;716022;1200;113972;-72
2021/11/28 12:00:16;;;;;;;135.70;50.43;;;;;;;3.33;100.00;98682.94;716057;1199;112774;-82
2021/11/28 12:15:23;;;;;;;274.90;82.65;;;;;;;3.52;100.00;98680.58;715697;1199;115007;-74
2021/11/28 12:30:34;;;;;;;204.65;59.38;;;;;;;3.58;100.00;98660.14;716209;1199;113967;-76
2021/11/28 12:45:37;;;;;;;124.07;46.20;;;;;;;3.50;100.00;98640.04;715525;1202;115002;-74
2021/11/28 13:00:49;;;;;;;116.03;42.68;;;;;;;3.47;100.00;98627.34;715768;1199;114612;-74
2021/11/28 13:16:00;;;;;;;166.18;63.35;;;;;;;3.41;100.00;98625.27;715878;1177;113695;-91
2021/11/28 13:31:23;;;;;;;210.48;64.78;;;;;;;3.47;100.00;98629.94;717894;1199;114808;-80
2021/11/28 13:46:28;;;;;;;124.60;43.60;;;;;;;3.39;100.00;98632.37;715902;1200;113919;-81
2021/11/28 14:01:31;;;;;;;195.28;55.10;;;;;;;3.47;100.00;98627.34;714488;1202;113792;-73
2021/11/28 14:16:34;;;;;;;193.67;62.60;;;;;;;3.54;100.00;98616.43;714529;1199;114380;-75
2021/11/28 14:32:01;;;;;;;137.93;48.10;;;;;;;3.49;100.00;98620.24;714269;1199;115396;-74
2021/11/28 14:47:04;;;;;;;217.23;82.65;;;;;;;3.36;100.00;98606.69;714735;1199;113725;-81
2021/11/28 15:02:15;;;;;;;325.88;99.75;;;;;;;3.42;100.00;98603.58;714776;1200;114081;-79
2021/11/28 15:17:25;;;;;;;545.98;173.28;;;;;;;3.37;100.00;98594.56;715407;1186;113954;-79
2021/11/28 15:32:28;;;;;;;125.48;47.23;;;;;;;3.36;100.00;98595.51;714954;1202;114085;-80
2021/11/28 15:47:31;;;;;;;104.43;37.25;;;;;;;3.35;100.00;98596.45;714890;1199;113685;-91
2021/11/28 16:02:33;;;;;;;200.28;84.70;;;;;;;3.44;100.00;98601.66;714880;1199;113776;-81
2021/11/28 16:17:36;;;;;;;145.75;46.78;;;;;;;3.45;100.00;98579.98;714500;1199;113793;-80
2021/11/28 16:32:38;;;;;;;173.27;56.40;;;;;;;3.38;100.00;98565.08;715096;1178;113666;-75
2021/11/28 16:47:41;;;;;;;175.08;66.05;;;;;;;3.37;100.00;98553.09;714833;1199;114715;-75
2021/11/28 17:02:43;;;;;;;151.57;51.70;;;;;;;3.40;100.00;98527.70;714545;1202;114430;-74
2021/11/28 17:17:46;;;;;;;170.30;65.77;;;;;;;3.55;100.00;98537.70;715643;1199;114499;-83
2021/11/28 17:32:49;;;;;;;125.75;47.53;;;;;;;3.47;100.00;98515.02;717062;1200;113620;-91
2021/11/28 17:47:52;;;;;;;138.80;45.50;;;;;;;3.62;100.00;98567.34;718376;1176;113844;-75
2021/11/28 18:02:55;;;;;;;272.28;89.15;;;;;;;3.66;100.00;98586.88;716263;1192;113819;-72
2021/11/28 18:17:58;;;;;;;177.58;71.20;;;;;;;3.73;100.00;98551.66;716741;1198;114523;-73
2021/11/28 18:33:02;;;;;;;105.43;42.23;;;;;;;3.85;100.00;98567.92;716851;1178;113807;-73
2021/11/28 18:48:05;;;;;;;106.95;35.48;;;;;;;3.90;100.00;98572.72;716536;1199;114307;-74
2021/11/28 19:03:08;;;;;;;136.45;48.20;;;;;;;3.78;100.00;98535.70;718217;1177;113704;-73
2021/11/28 19:18:11;;;;;;;122.23;43.97;;;;;;;3.58;100.00;98551.22;716417;1177;113829;-73
2021/11/28 19:33:14;;;;;;;131.10;42.58;;;;;;;3.41;100.00;98528.54;715872;1197;113041;-73
2021/11/28 19:48:18;;;;;;;134.53;43.65;;;;;;;3.30;100.00;98532.06;715658;1174;114500;-72
2021/11/28 20:03:22;;;;;;;105.75;34.63;;;;;;;3.24;100.00;98524.80;716170;1178;113690;-72
2021/11/28 20:18:26;;;;;;;117.87;40.43;;;;;;;3.19;100.00;98499.27;715941;1174;113798;-74
2021/11/28 20:33:29;;;;;;;73.85;24.63;;;;;;;3.05;100.00;98497.03;715566;1199;114799;-77
2021/11/28 20:48:33;;;;;;;112.73;36.70;;;;;;;2.97;100.00;98492.53;715810;1200;115241;-76
2021/11/28 21:03:37;;;;;;;109.57;36.30;;;;;;;3.07;100.00;98479.59;715369;1174;113835;-74
2021/11/28 21:18:42;;;;;;;80.40;33.20;;;;;;;3.00;100.00;98453.40;716001;1176;113778;-74
2021/11/28 21:33:45;;;;;;;107.33;39.70;;;;;;;2.91;100.00;98439.45;715339;1176;114406;-74
2021/11/28 21:48:47;;;;;;;89.03;32.67;;;;;;;3.04;100.00;98422.88;715447;1174;113679;-75
2021/11/28 22:03:50;;;;;;;75.73;31.73;;;;;;;3.04;100.00;98377.05;717545;1188;113837;-75
2021/11/28 22:18:53;;;;;;;64.78;26.13;;;;;;;3.01;100.00;98351.41;716449;1175;113555;-75
2021/11/28 22:33:55;;;;;;;52.98;20.33;;;;;;;2.92;100.00;98363.39;715367;1177;113980;-74
2021/11/28 22:48:58;;;;;;;46.40;18.90;;;;;;;2.99;100.00;98372.25;715074;1176;114392;-74
2021/11/28 23:04:07;;;;;;;58.88;20.88;;;;;;;2.98;100.00;98364.62;714981;1202;113726;-74
2021/11/28 23:19:10;;;;;;;43.83;19.90;;;;;;;2.99;100.00;98340.36;715585;1174;113658;-74
2021/11/28 23:34:13;;;;;;;56.43;19.07;;;;;;;2.95;100.00;98333.81;714826;1200;114724;-74
2021/11/28 23:49:16;;;;;;;51.18;17.13;;;;;;;2.96;100.00;98332.86;715259;1199;114581;-74
